sensor_id;sensor_type;location;lat;lon;timestamp;P1;durP1;ratioP1;P2;durP2;ratioP2
31594;SDS011;18200;48.726;8.892;2022-11-11T00:01:40;10.65;;;6.53;;
31594;SDS011;18200;48.726;8.892;2022-11-11T00:06:03;12.77;;;7.05;;
31594;SDS011;18200;48.726;8.892;2022-11-11T00:10:25;16.75;;;7.80;;
31594;SDS011;18200;48.726;8.892;2022-11-11T00:14:44;13.48;;;7.25;;
31594;SDS011;18200;48.726;8.892;2022-11-11T00:19:04;14.57;;;7.07;;
31594;SDS011;18200;48.726;8.892;2022-11-11T00:23:41;15.30;;;7.38;;
31594;SDS011;18200;48.726;8.892;2022-11-11T00:28:19;13.00;;;7.43;;
31594;SDS011;18200;48.726;8.892;2022-11-11T00:32:38;15.90;;;8.20;;
31594;SDS011;18200;48.726;8.892;2022-11-11T00:36:57;15.43;;;8.23;;
31594;SDS011;18200;48.726;8.892;2022-11-11T00:41:17;12.77;;;7.55;;
31594;SDS011;18200;48.726;8.892;2022-11-11T00:45:38;15.38;;;8.25;;
31594;SDS011;18200;48.726;8.892;2022-11-11T00:49:57;12.27;;;7.03;;
31594;SDS011;18200;48.726;8.892;2022-11-11T00:54:34;9.32;;;6.22;;
31594;SDS011;18200;48.726;8.892;2022-11-11T00:58:54;13.93;;;6.60;;
31594;SDS011;18200;48.726;8.892;2022-11-11T01:03:13;12.23;;;6.53;;
31594;SDS011;18200;48.726;8.892;2022-11-11T01:07:32;13.80;;;6.43;;
31594;SDS011;18200;48.726;8.892;2022-11-11T01:11:52;9.98;;;5.88;;
31594;SDS011;18200;48.726;8.892;2022-11-11T01:16:12;9.02;;;5.65;;
31594;SDS011;18200;48.726;8.892;2022-11-11T01:20:33;10.98;;;6.00;;
31594;SDS011;18200;48.726;8.892;2022-11-11T01:24:53;11.00;;;5.72;;
31594;SDS011;18200;48.726;8.892;2022-11-11T01:29:11;10.73;;;5.63;;
31594;SDS011;18200;48.726;8.892;2022-11-11T01:33:30;9.45;;;5.60;;
31594;SDS011;18200;48.726;8.892;2022-11-11T01:37:50;13.32;;;6.93;;
31594;SDS011;18200;48.726;8.892;2022-11-11T01:42:17;10.05;;;5.40;;
31594;SDS011;18200;48.726;8.892;2022-11-11T01:52:05;9.60;;;5.90;;
31594;SDS011;18200;48.726;8.892;2022-11-11T01:56:12;10.80;;;5.65;;
31594;SDS011;18200;48.726;8.892;2022-11-11T02:00:35;7.88;;;5.40;;
31594;SDS011;18200;48.726;8.892;2022-11-11T02:04:56;13.27;;;6.20;;
31594;SDS011;18200;48.726;8.892;2022-11-11T02:09:42;12.13;;;5.97;;
31594;SDS011;18200;48.726;8.892;2022-11-11T02:14:06;12.60;;;5.80;;
31594;SDS011;18200;48.726;8.892;2022-11-11T02:18:47;9.40;;;5.60;;
31594;SDS011;18200;48.726;8.892;2022-11-11T02:23:14;12.57;;;5.30;;
31594;SDS011;18200;48.726;8.892;2022-11-11T02:28:09;8.75;;;5.25;;
31594;SDS011;18200;48.726;8.892;2022-11-11T02:32:30;10.55;;;5.30;;
31594;SDS011;18200;48.726;8.892;2022-11-11T02:36:52;7.32;;;5.30;;
31594;SDS011;18200;48.726;8.892;2022-11-11T02:41:13;13.57;;;5.53;;
31594;SDS011;18200;48.726;8.892;2022-11-11T02:45:51;8.73;;;5.25;;
31594;SDS011;18200;48.726;8.892;2022-11-11T02:50:10;11.23;;;5.35;;
31594;SDS011;18200;48.726;8.892;2022-11-11T02:54:35;9.98;;;5.53;;
31594;SDS011;18200;48.726;8.892;2022-11-11T02:58:54;9.65;;;5.47;;
31594;SDS011;18200;48.726;8.892;2022-11-11T03:03:21;6.65;;;4.55;;
31594;SDS011;18200;48.726;8.892;2022-11-11T03:07:49;10.93;;;5.32;;
31594;SDS011;18200;48.726;8.892;2022-11-11T03:12:11;9.85;;;5.82;;
31594;SDS011;18200;48.726;8.892;2022-11-11T03:16:33;9.77;;;5.68;;
31594;SDS011;18200;48.726;8.892;2022-11-11T03:21:12;7.70;;;5.03;;
31594;SDS011;18200;48.726;8.892;2022-11-11T03:25:37;17.27;;;5.30;;
31594;SDS011;18200;48.726;8.892;2022-11-11T03:30:09;8.85;;;5.22;;
31594;SDS011;18200;48.726;8.892;2022-11-11T03:34:34;12.93;;;5.82;;
31594;SDS011;18200;48.726;8.892;2022-11-11T03:38:53;9.63;;;6.05;;
31594;SDS011;18200;48.726;8.892;2022-11-11T03:43:25;12.68;;;7.00;;
31594;SDS011;18200;48.726;8.892;2022-11-11T03:47:48;10.80;;;6.00;;
31594;SDS011;18200;48.726;8.892;2022-11-11T03:52:10;11.48;;;5.85;;
31594;SDS011;18200;48.726;8.892;2022-11-11T03:56:31;8.70;;;5.00;;
31594;SDS011;18200;48.726;8.892;2022-11-11T04:00:53;12.45;;;5.38;;
31594;SDS011;18200;48.726;8.892;2022-11-11T04:05:15;14.07;;;5.38;;
31594;SDS011;18200;48.726;8.892;2022-11-11T04:09:56;14.43;;;6.72;;
31594;SDS011;18200;48.726;8.892;2022-11-11T04:14:36;9.65;;;5.88;;
31594;SDS011;18200;48.726;8.892;2022-11-11T04:19:13;11.40;;;6.15;;
31594;SDS011;18200;48.726;8.892;2022-11-11T04:23:54;9.88;;;5.47;;
31594;SDS011;18200;48.726;8.892;2022-11-11T04:28:13;10.55;;;6.65;;
31594;SDS011;18200;48.726;8.892;2022-11-11T04:32:50;9.70;;;5.40;;
31594;SDS011;18200;48.726;8.892;2022-11-11T04:37:18;8.13;;;5.25;;
31594;SDS011;18200;48.726;8.892;2022-11-11T04:41:37;10.05;;;5.18;;
31594;SDS011;18200;48.726;8.892;2022-11-11T04:45:57;9.02;;;5.88;;
31594;SDS011;18200;48.726;8.892;2022-11-11T04:50:20;11.93;;;6.97;;
31594;SDS011;18200;48.726;8.892;2022-11-11T04:54:45;12.70;;;6.53;;
31594;SDS011;18200;48.726;8.892;2022-11-11T04:59:25;9.35;;;5.70;;
31594;SDS011;18200;48.726;8.892;2022-11-11T05:03:44;9.35;;;5.65;;
31594;SDS011;18200;48.726;8.892;2022-11-11T05:08:03;11.70;;;5.47;;
31594;SDS011;18200;48.726;8.892;2022-11-11T05:12:41;14.82;;;8.15;;
31594;SDS011;18200;48.726;8.892;2022-11-11T05:17:07;10.52;;;5.93;;
31594;SDS011;18200;48.726;8.892;2022-11-11T05:21:46;10.57;;;6.32;;
31594;SDS011;18200;48.726;8.892;2022-11-11T05:26:08;10.60;;;6.28;;
31594;SDS011;18200;48.726;8.892;2022-11-11T05:30:30;11.93;;;6.28;;
31594;SDS011;18200;48.726;8.892;2022-11-11T05:34:49;9.90;;;6.15;;
31594;SDS011;18200;48.726;8.892;2022-11-11T05:39:12;9.68;;;5.97;;
31594;SDS011;18200;48.726;8.892;2022-11-11T05:43:32;15.15;;;6.90;;
31594;SDS011;18200;48.726;8.892;2022-11-11T05:47:52;11.23;;;5.88;;
31594;SDS011;18200;48.726;8.892;2022-11-11T05:52:12;11.57;;;5.50;;
31594;SDS011;18200;48.726;8.892;2022-11-11T05:56:34;11.55;;;6.60;;
31594;SDS011;18200;48.726;8.892;2022-11-11T06:00:54;11.30;;;7.10;;
31594;SDS011;18200;48.726;8.892;2022-11-11T06:05:23;11.88;;;6.57;;
31594;SDS011;18200;48.726;8.892;2022-11-11T06:09:54;12.50;;;7.03;;
31594;SDS011;18200;48.726;8.892;2022-11-11T06:14:42;15.00;;;7.00;;
31594;SDS011;18200;48.726;8.892;2022-11-11T06:19:09;10.63;;;6.45;;
31594;SDS011;18200;48.726;8.892;2022-11-11T06:23:29;9.98;;;6.50;;
31594;SDS011;18200;48.726;8.892;2022-11-11T06:27:49;9.02;;;6.07;;
31594;SDS011;18200;48.726;8.892;2022-11-11T06:32:11;9.50;;;6.43;;
31594;SDS011;18200;48.726;8.892;2022-11-11T06:36:33;14.40;;;7.40;;
31594;SDS011;18200;48.726;8.892;2022-11-11T06:41:13;15.13;;;8.80;;
31594;SDS011;18200;48.726;8.892;2022-11-11T06:45:41;13.00;;;7.43;;
31594;SDS011;18200;48.726;8.892;2022-11-11T06:50:43;13.15;;;7.75;;
31594;SDS011;18200;48.726;8.892;2022-11-11T07:11:18;12.95;;;6.85;;
31594;SDS011;18200;48.726;8.892;2022-11-11T07:15:46;13.07;;;7.70;;
31594;SDS011;18200;48.726;8.892;2022-11-11T07:20:07;13.75;;;8.10;;
31594;SDS011;18200;48.726;8.892;2022-11-11T07:24:29;14.48;;;6.78;;
31594;SDS011;18200;48.726;8.892;2022-11-11T07:28:53;13.07;;;7.75;;
31594;SDS011;18200;48.726;8.892;2022-11-11T07:33:45;19.83;;;10.32;;
31594;SDS011;18200;48.726;8.892;2022-11-11T07:38:24;15.40;;;9.95;;
31594;SDS011;18200;48.726;8.892;2022-11-11T07:42:53;17.88;;;10.10;;
31594;SDS011;18200;48.726;8.892;2022-11-11T07:52:51;15.00;;;8.18;;
31594;SDS011;18200;48.726;8.892;2022-11-11T07:57:27;17.13;;;8.93;;
31594;SDS011;18200;48.726;8.892;2022-11-11T08:02:15;16.08;;;7.90;;
31594;SDS011;18200;48.726;8.892;2022-11-11T08:06:49;16.08;;;7.93;;
31594;SDS011;18200;48.726;8.892;2022-11-11T08:11:32;16.10;;;8.02;;
31594;SDS011;18200;48.726;8.892;2022-11-11T08:16:11;17.60;;;8.77;;
31594;SDS011;18200;48.726;8.892;2022-11-11T08:20:32;16.70;;;9.07;;
31594;SDS011;18200;48.726;8.892;2022-11-11T08:24:52;13.13;;;8.35;;
31594;SDS011;18200;48.726;8.892;2022-11-11T08:29:11;14.15;;;8.13;;
31594;SDS011;18200;48.726;8.892;2022-11-11T08:33:30;15.75;;;8.50;;
31594;SDS011;18200;48.726;8.892;2022-11-11T08:37:49;20.92;;;11.68;;
31594;SDS011;18200;48.726;8.892;2022-11-11T08:42:08;12.85;;;9.00;;
31594;SDS011;18200;48.726;8.892;2022-11-11T08:46:28;10.93;;;7.45;;
31594;SDS011;18200;48.726;8.892;2022-11-11T08:50:46;13.85;;;8.15;;
31594;SDS011;18200;48.726;8.892;2022-11-11T08:55:06;14.60;;;8.68;;
31594;SDS011;18200;48.726;8.892;2022-11-11T08:59:25;17.73;;;8.60;;
31594;SDS011;18200;48.726;8.892;2022-11-11T09:03:44;13.45;;;8.25;;
31594;SDS011;18200;48.726;8.892;2022-11-11T09:08:04;14.90;;;8.63;;
31594;SDS011;18200;48.726;8.892;2022-11-11T09:12:25;16.05;;;8.40;;
31594;SDS011;18200;48.726;8.892;2022-11-11T09:16:43;13.80;;;8.15;;
31594;SDS011;18200;48.726;8.892;2022-11-11T09:21:03;10.95;;;7.28;;
31594;SDS011;18200;48.726;8.892;2022-11-11T09:25:22;14.75;;;7.85;;
31594;SDS011;18200;48.726;8.892;2022-11-11T09:29:41;13.30;;;7.57;;
31594;SDS011;18200;48.726;8.892;2022-11-11T09:34:00;10.75;;;7.10;;
31594;SDS011;18200;48.726;8.892;2022-11-11T09:38:19;15.85;;;9.85;;
31594;SDS011;18200;48.726;8.892;2022-11-11T09:42:48;12.35;;;7.57;;
31594;SDS011;18200;48.726;8.892;2022-11-11T09:47:26;12.20;;;7.53;;
31594;SDS011;18200;48.726;8.892;2022-11-11T09:51:54;14.52;;;7.10;;
31594;SDS011;18200;48.726;8.892;2022-11-11T09:56:28;12.60;;;5.40;;
31594;SDS011;18200;48.726;8.892;2022-11-11T10:00:48;11.35;;;5.57;;
31594;SDS011;18200;48.726;8.892;2022-11-11T10:05:26;9.20;;;5.20;;
31594;SDS011;18200;48.726;8.892;2022-11-11T10:09:56;10.80;;;4.68;;
31594;SDS011;18200;48.726;8.892;2022-11-11T10:14:22;14.77;;;5.68;;
31594;SDS011;18200;48.726;8.892;2022-11-11T10:19:01;13.02;;;7.20;;
31594;SDS011;18200;48.726;8.892;2022-11-11T10:23:30;15.13;;;6.03;;
31594;SDS011;18200;48.726;8.892;2022-11-11T10:27:54;12.45;;;5.82;;
31594;SDS011;18200;48.726;8.892;2022-11-11T10:32:31;9.93;;;4.70;;
31594;SDS011;18200;48.726;8.892;2022-11-11T10:36:53;13.80;;;4.68;;
31594;SDS011;18200;48.726;8.892;2022-11-11T10:41:22;13.10;;;5.03;;
31594;SDS011;18200;48.726;8.892;2022-11-11T10:46:08;12.27;;;5.68;;
31594;SDS011;18200;48.726;8.892;2022-11-11T10:55:02;15.25;;;3.67;;
31594;SDS011;18200;48.726;8.892;2022-11-11T11:03:54;11.48;;;4.10;;
31594;SDS011;18200;48.726;8.892;2022-11-11T11:08:20;7.47;;;3.60;;
31594;SDS011;18200;48.726;8.892;2022-11-11T11:13:04;11.05;;;4.25;;
31594;SDS011;18200;48.726;8.892;2022-11-11T11:17:34;7.53;;;4.15;;
31594;SDS011;18200;48.726;8.892;2022-11-11T11:21:59;9.27;;;4.68;;
31594;SDS011;18200;48.726;8.892;2022-11-11T11:26:19;16.23;;;5.90;;
31594;SDS011;18200;48.726;8.892;2022-11-11T11:30:39;18.13;;;7.07;;
31594;SDS011;18200;48.726;8.892;2022-11-11T11:34:58;17.60;;;5.78;;
31594;SDS011;18200;48.726;8.892;2022-11-11T11:39:30;9.65;;;4.13;;
31594;SDS011;18200;48.726;8.892;2022-11-11T11:43:50;9.15;;;4.30;;
31594;SDS011;18200;48.726;8.892;2022-11-11T11:48:17;9.32;;;3.85;;
31594;SDS011;18200;48.726;8.892;2022-11-11T11:53:21;9.85;;;4.47;;
31594;SDS011;18200;48.726;8.892;2022-11-11T11:58:21;7.45;;;3.50;;
31594;SDS011;18200;48.726;8.892;2022-11-11T12:07:32;16.48;;;6.50;;
31594;SDS011;18200;48.726;8.892;2022-11-11T12:16:35;13.50;;;5.25;;
31594;SDS011;18200;48.726;8.892;2022-11-11T12:20:58;10.05;;;4.18;;
31594;SDS011;18200;48.726;8.892;2022-11-11T12:25:36;12.43;;;3.60;;
31594;SDS011;18200;48.726;8.892;2022-11-11T12:30:07;9.20;;;3.25;;
31594;SDS011;18200;48.726;8.892;2022-11-11T12:43:48;6.53;;;2.35;;
31594;SDS011;18200;48.726;8.892;2022-11-11T13:06:59;5.10;;;2.90;;
31594;SDS011;18200;48.726;8.892;2022-11-11T13:11:51;4.72;;;2.17;;
31594;SDS011;18200;48.726;8.892;2022-11-11T13:16:23;5.82;;;3.53;;
31594;SDS011;18200;48.726;8.892;2022-11-11T13:20:50;6.32;;;1.95;;
31594;SDS011;18200;48.726;8.892;2022-11-11T13:25:20;5.93;;;2.50;;
31594;SDS011;18200;48.726;8.892;2022-11-11T13:34:18;6.15;;;2.10;;
31594;SDS011;18200;48.726;8.892;2022-11-11T13:38:44;7.25;;;3.08;;
31594;SDS011;18200;48.726;8.892;2022-11-11T13:43:15;7.75;;;2.83;;
31594;SDS011;18200;48.726;8.892;2022-11-11T13:47:39;7.80;;;3.45;;
31594;SDS011;18200;48.726;8.892;2022-11-11T13:52:18;11.07;;;3.50;;
31594;SDS011;18200;48.726;8.892;2022-11-11T13:56:41;11.98;;;3.33;;
31594;SDS011;18200;48.726;8.892;2022-11-11T14:01:03;8.15;;;2.42;;
31594;SDS011;18200;48.726;8.892;2022-11-11T14:05:25;14.03;;;3.43;;
31594;SDS011;18200;48.726;8.892;2022-11-11T14:09:52;11.98;;;3.70;;
31594;SDS011;18200;48.726;8.892;2022-11-11T14:18:49;6.07;;;2.00;;
31594;SDS011;18200;48.726;8.892;2022-11-11T14:27:36;6.40;;;2.00;;
31594;SDS011;18200;48.726;8.892;2022-11-11T14:32:48;8.25;;;2.20;;
31594;SDS011;18200;48.726;8.892;2022-11-11T14:37:26;9.18;;;2.50;;
31594;SDS011;18200;48.726;8.892;2022-11-11T14:41:47;5.80;;;1.88;;
31594;SDS011;18200;48.726;8.892;2022-11-11T14:46:09;14.82;;;3.40;;
31594;SDS011;18200;48.726;8.892;2022-11-11T14:59:35;6.20;;;3.10;;
31594;SDS011;18200;48.726;8.892;2022-11-11T15:03:56;4.90;;;2.40;;
31594;SDS011;18200;48.726;8.892;2022-11-11T15:08:23;5.68;;;2.42;;
31594;SDS011;18200;48.726;8.892;2022-11-11T15:12:47;9.02;;;2.30;;
31594;SDS011;18200;48.726;8.892;2022-11-11T15:21:36;10.75;;;2.70;;
31594;SDS011;18200;48.726;8.892;2022-11-11T15:30:46;8.93;;;3.90;;
31594;SDS011;18200;48.726;8.892;2022-11-11T15:35:21;9.25;;;4.15;;
31594;SDS011;18200;48.726;8.892;2022-11-11T15:39:49;12.50;;;4.88;;
31594;SDS011;18200;48.726;8.892;2022-11-11T15:44:27;40.60;;;13.00;;
31594;SDS011;18200;48.726;8.892;2022-11-11T15:48:48;29.88;;;16.15;;
31594;SDS011;18200;48.726;8.892;2022-11-11T15:53:12;23.55;;;9.57;;
31594;SDS011;18200;48.726;8.892;2022-11-11T15:57:37;16.23;;;7.28;;
31594;SDS011;18200;48.726;8.892;2022-11-11T16:01:56;27.23;;;9.40;;
31594;SDS011;18200;48.726;8.892;2022-11-11T16:06:16;13.13;;;5.07;;
31594;SDS011;18200;48.726;8.892;2022-11-11T16:10:36;18.83;;;5.90;;
31594;SDS011;18200;48.726;8.892;2022-11-11T16:14:57;20.20;;;9.32;;
31594;SDS011;18200;48.726;8.892;2022-11-11T16:19:26;21.90;;;8.35;;
31594;SDS011;18200;48.726;8.892;2022-11-11T16:23:47;14.13;;;7.03;;
31594;SDS011;18200;48.726;8.892;2022-11-11T16:28:09;10.18;;;5.95;;
31594;SDS011;18200;48.726;8.892;2022-11-11T16:32:31;11.88;;;5.32;;
31594;SDS011;18200;48.726;8.892;2022-11-11T16:37:05;15.45;;;7.22;;
31594;SDS011;18200;48.726;8.892;2022-11-11T16:41:26;27.80;;;16.30;;
31594;SDS011;18200;48.726;8.892;2022-11-11T16:45:48;33.15;;;19.23;;
31594;SDS011;18200;48.726;8.892;2022-11-11T16:54:39;29.20;;;14.30;;
31594;SDS011;18200;48.726;8.892;2022-11-11T16:59:14;93.60;;;45.50;;
31594;SDS011;18200;48.726;8.892;2022-11-11T17:03:37;27.27;;;14.95;;
31594;SDS011;18200;48.726;8.892;2022-11-11T17:12:59;35.08;;;17.73;;
31594;SDS011;18200;48.726;8.892;2022-11-11T17:17:21;27.65;;;15.48;;
31594;SDS011;18200;48.726;8.892;2022-11-11T17:21:40;24.35;;;12.80;;
31594;SDS011;18200;48.726;8.892;2022-11-11T17:25:59;26.98;;;15.07;;
31594;SDS011;18200;48.726;8.892;2022-11-11T17:30:19;42.15;;;21.13;;
31594;SDS011;18200;48.726;8.892;2022-11-11T17:34:38;27.40;;;12.68;;
31594;SDS011;18200;48.726;8.892;2022-11-11T17:38:57;27.88;;;16.98;;
31594;SDS011;18200;48.726;8.892;2022-11-11T17:43:16;26.40;;;14.93;;
31594;SDS011;18200;48.726;8.892;2022-11-11T17:47:36;35.85;;;18.38;;
31594;SDS011;18200;48.726;8.892;2022-11-11T17:51:55;37.95;;;21.13;;
31594;SDS011;18200;48.726;8.892;2022-11-11T17:56:14;31.95;;;19.92;;
31594;SDS011;18200;48.726;8.892;2022-11-11T18:00:32;27.65;;;18.27;;
31594;SDS011;18200;48.726;8.892;2022-11-11T18:04:52;34.50;;;19.27;;
31594;SDS011;18200;48.726;8.892;2022-11-11T18:09:15;32.40;;;20.23;;
31594;SDS011;18200;48.726;8.892;2022-11-11T18:13:34;31.95;;;20.40;;
31594;SDS011;18200;48.726;8.892;2022-11-11T18:17:53;33.35;;;19.50;;
31594;SDS011;18200;48.726;8.892;2022-11-11T18:22:12;38.10;;;21.38;;
31594;SDS011;18200;48.726;8.892;2022-11-11T18:26:31;36.60;;;20.63;;
31594;SDS011;18200;48.726;8.892;2022-11-11T18:30:50;30.52;;;18.20;;
31594;SDS011;18200;48.726;8.892;2022-11-11T18:35:09;30.17;;;17.17;;
31594;SDS011;18200;48.726;8.892;2022-11-11T18:39:29;25.80;;;16.08;;
31594;SDS011;18200;48.726;8.892;2022-11-11T18:43:49;30.88;;;18.90;;
31594;SDS011;18200;48.726;8.892;2022-11-11T18:48:09;36.78;;;20.05;;
31594;SDS011;18200;48.726;8.892;2022-11-11T18:52:29;29.80;;;16.33;;
31594;SDS011;18200;48.726;8.892;2022-11-11T18:56:48;32.33;;;17.67;;
31594;SDS011;18200;48.726;8.892;2022-11-11T19:01:11;35.38;;;18.52;;
31594;SDS011;18200;48.726;8.892;2022-11-11T19:05:39;33.40;;;17.17;;
31594;SDS011;18200;48.726;8.892;2022-11-11T19:09:58;33.05;;;15.52;;
31594;SDS011;18200;48.726;8.892;2022-11-11T19:14:17;26.25;;;14.70;;
31594;SDS011;18200;48.726;8.892;2022-11-11T19:18:37;28.42;;;15.55;;
31594;SDS011;18200;48.726;8.892;2022-11-11T19:22:56;23.45;;;12.52;;
31594;SDS011;18200;48.726;8.892;2022-11-11T19:27:15;27.50;;;16.17;;
31594;SDS011;18200;48.726;8.892;2022-11-11T19:31:35;30.50;;;17.20;;
31594;SDS011;18200;48.726;8.892;2022-11-11T19:35:54;26.73;;;15.75;;
31594;SDS011;18200;48.726;8.892;2022-11-11T19:40:14;26.88;;;16.25;;
31594;SDS011;18200;48.726;8.892;2022-11-11T19:44:33;29.13;;;17.85;;
31594;SDS011;18200;48.726;8.892;2022-11-11T19:48:53;24.25;;;14.02;;
31594;SDS011;18200;48.726;8.892;2022-11-11T19:53:14;21.75;;;13.68;;
31594;SDS011;18200;48.726;8.892;2022-11-11T19:57:34;29.15;;;20.48;;
31594;SDS011;18200;48.726;8.892;2022-11-11T20:01:53;34.80;;;21.15;;
31594;SDS011;18200;48.726;8.892;2022-11-11T20:10:45;29.35;;;16.73;;
31594;SDS011;18200;48.726;8.892;2022-11-11T20:15:05;65.45;;;32.30;;
31594;SDS011;18200;48.726;8.892;2022-11-11T20:19:24;47.17;;;26.25;;
31594;SDS011;18200;48.726;8.892;2022-11-11T20:23:43;36.40;;;17.08;;
31594;SDS011;18200;48.726;8.892;2022-11-11T20:28:02;26.17;;;14.27;;
31594;SDS011;18200;48.726;8.892;2022-11-11T20:32:21;28.17;;;15.52;;
31594;SDS011;18200;48.726;8.892;2022-11-11T20:36:40;34.35;;;18.92;;
31594;SDS011;18200;48.726;8.892;2022-11-11T20:41:00;26.85;;;16.15;;
31594;SDS011;18200;48.726;8.892;2022-11-11T20:45:22;30.00;;;16.50;;
31594;SDS011;18200;48.726;8.892;2022-11-11T20:49:41;34.95;;;16.63;;
31594;SDS011;18200;48.726;8.892;2022-11-11T20:54:01;26.73;;;15.07;;
31594;SDS011;18200;48.726;8.892;2022-11-11T20:58:20;27.42;;;14.25;;
31594;SDS011;18200;48.726;8.892;2022-11-11T21:02:39;24.10;;;15.18;;
31594;SDS011;18200;48.726;8.892;2022-11-11T21:06:58;28.23;;;15.30;;
31594;SDS011;18200;48.726;8.892;2022-11-11T21:11:18;29.10;;;16.13;;
31594;SDS011;18200;48.726;8.892;2022-11-11T21:15:38;28.98;;;17.55;;
31594;SDS011;18200;48.726;8.892;2022-11-11T21:19:58;28.70;;;18.90;;
31594;SDS011;18200;48.726;8.892;2022-11-11T21:24:17;29.95;;;17.23;;
31594;SDS011;18200;48.726;8.892;2022-11-11T21:28:37;24.30;;;15.65;;
31594;SDS011;18200;48.726;8.892;2022-11-11T21:32:57;27.13;;;15.15;;
31594;SDS011;18200;48.726;8.892;2022-11-11T21:37:16;26.75;;;16.02;;
31594;SDS011;18200;48.726;8.892;2022-11-11T21:41:36;25.63;;;16.95;;
31594;SDS011;18200;48.726;8.892;2022-11-11T21:46:00;27.75;;;16.85;;
31594;SDS011;18200;48.726;8.892;2022-11-11T21:50:20;26.48;;;17.27;;
31594;SDS011;18200;48.726;8.892;2022-11-11T21:54:39;31.92;;;19.15;;
31594;SDS011;18200;48.726;8.892;2022-11-11T21:58:59;40.28;;;22.90;;
31594;SDS011;18200;48.726;8.892;2022-11-11T22:03:19;47.20;;;25.10;;
31594;SDS011;18200;48.726;8.892;2022-11-11T22:07:39;42.25;;;22.65;;
31594;SDS011;18200;48.726;8.892;2022-11-11T22:11:58;31.50;;;17.95;;
31594;SDS011;18200;48.726;8.892;2022-11-11T22:16:18;30.42;;;17.77;;
31594;SDS011;18200;48.726;8.892;2022-11-11T22:20:41;43.83;;;20.42;;
31594;SDS011;18200;48.726;8.892;2022-11-11T22:25:00;127.35;;;25.45;;
31594;SDS011;18200;48.726;8.892;2022-11-11T22:29:19;68.47;;;23.73;;
31594;SDS011;18200;48.726;8.892;2022-11-11T22:33:40;78.93;;;23.48;;
31594;SDS011;18200;48.726;8.892;2022-11-11T22:38:01;45.25;;;20.83;;
31594;SDS011;18200;48.726;8.892;2022-11-11T22:42:19;43.85;;;22.05;;
31594;SDS011;18200;48.726;8.892;2022-11-11T22:46:38;41.25;;;19.30;;
31594;SDS011;18200;48.726;8.892;2022-11-11T22:55:27;33.20;;;17.95;;
31594;SDS011;18200;48.726;8.892;2022-11-11T22:59:45;37.25;;;20.45;;
31594;SDS011;18200;48.726;8.892;2022-11-11T23:04:07;46.92;;;21.30;;
31594;SDS011;18200;48.726;8.892;2022-11-11T23:08:30;34.55;;;19.83;;
31594;SDS011;18200;48.726;8.892;2022-11-11T23:12:49;32.42;;;18.67;;
31594;SDS011;18200;48.726;8.892;2022-11-11T23:17:08;39.47;;;17.92;;
31594;SDS011;18200;48.726;8.892;2022-11-11T23:21:28;23.67;;;15.57;;
31594;SDS011;18200;48.726;8.892;2022-11-11T23:25:47;23.05;;;14.43;;
31594;SDS011;18200;48.726;8.892;2022-11-11T23:30:07;22.35;;;13.05;;
31594;SDS011;18200;48.726;8.892;2022-11-11T23:34:26;38.80;;;22.10;;
31594;SDS011;18200;48.726;8.892;2022-11-11T23:38:46;36.47;;;20.67;;
31594;SDS011;18200;48.726;8.892;2022-11-11T23:43:05;35.38;;;22.10;;
31594;SDS011;18200;48.726;8.892;2022-11-11T23:47:24;36.47;;;20.50;;
31594;SDS011;18200;48.726;8.892;2022-11-11T23:51:43;39.58;;;20.60;;
31594;SDS011;18200;48.726;8.892;2022-11-11T23:56:02;33.83;;;17.35;;
